Time;durP1;ratioP1;P1;durP2;ratioP2;P2;SDS_P1;SDS_P2;PMS_P1;PMS_P2;Temp;Humidity;BMP_temperature;BMP_pressure;BME280_temperature;BME280_humidity;BME280_pressure;Samples;Min_cycle;Max_cycle;Signal;HPM_P1;HPM_P2
2021/09/04 00:02:11;;;;;;;2.80;1.15;;;;;;;10.36;71.21;100253.05;1775182;81;21280;-72
2021/09/04 00:04:43;;;;;;;2.27;1.00;;;;;;;10.36;71.26;100259.12;1774525;81;21225;-73
2021/09/04 00:07:16;;;;;;;1.90;1.10;;;;;;;10.38;71.30;100255.05;1775466;81;21256;-73
2021/09/04 00:09:49;;;;;;;2.50;1.62;;;;;;;10.40;71.25;100251.81;1759595;81;21289;-73
2021/09/04 00:12:23;;;;;;;3.27;1.20;;;;;;;10.43;71.18;100245.84;1774866;81;21154;-73
2021/09/04 00:14:57;;;;;;;2.12;1.20;;;;;;;10.45;71.15;100240.46;1773057;81;21164;-73
2021/09/04 00:17:31;;;;;;;7.03;1.57;;;;;;;10.47;71.09;100235.44;1774861;81;21117;-72
2021/09/04 00:20:05;;;;;;;1.65;1.17;;;;;;;10.49;71.03;100246.59;1759928;81;21281;-73
2021/09/04 00:22:38;;;;;;;4.30;1.20;;;;;;;10.51;70.92;100247.28;1774763;81;21248;-73
2021/09/04 00:25:12;;;;;;;3.40;1.20;;;;;;;10.56;70.96;100246.87;1774581;81;21173;-73
2021/09/04 00:27:45;;;;;;;2.58;1.32;;;;;;;10.60;70.78;100241.73;1774941;81;21830;-73
2021/09/04 00:30:19;;;;;;;2.35;1.20;;;;;;;10.67;70.63;100246.77;1759544;81;21272;-73
2021/09/04 00:32:52;;;;;;;6.15;1.12;;;;;;;10.72;70.58;100239.33;1775117;81;21256;-73
2021/09/04 00:35:25;;;;;;;1.85;1.20;;;;;;;10.74;70.43;100231.69;1774614;81;21208;-73
2021/09/04 00:37:58;;;;;;;3.60;1.73;;;;;;;10.77;70.24;100238.44;1774962;81;21121;-74
2021/09/04 00:40:31;;;;;;;2.10;1.22;;;;;;;10.78;70.12;100238.77;1759507;81;21284;-72
2021/09/04 00:43:04;;;;;;;2.03;0.90;;;;;;;10.78;70.04;100234.36;1775061;81;21256;-73
2021/09/04 00:45:37;;;;;;;;;;;;;;;10.78;70.01;100239.59;1775248;81;21233;-73
2021/09/04 00:48:10;;;;;;;4.20;1.42;;;;;;;10.77;70.06;100236.63;1759890;81;20228;-73
2021/09/04 00:50:44;;;;;;;2.80;1.22;;;;;;;10.76;70.04;100234.16;1774939;81;21275;-72
2021/09/04 00:53:17;;;;;;;1.75;1.25;;;;;;;10.76;69.99;100232.38;1774838;81;21287;-73
2021/09/04 00:55:50;;;;;;;;;;;;;;;10.76;70.00;100223.20;1777391;81;21280;-72
2021/09/04 00:58:23;;;;;;;1.85;1.00;;;;;;;10.76;69.97;100223.67;1759549;81;20153;-73
2021/09/04 01:00:58;;;;;;;6.03;1.75;;;;;;;10.73;70.00;100220.85;1774795;81;21217;-73
2021/09/04 01:03:33;;;;;;;3.12;1.40;;;;;;;10.71;70.07;100218.86;1774748;81;21273;-73
2021/09/04 01:06:06;;;;;;;;;;;;;;;10.71;70.37;100227.19;1776802;81;21177;-73
2021/09/04 01:08:41;;;;;;;1.92;1.10;;;;;;;10.68;70.48;100215.67;1758151;81;20545;-72
2021/09/04 01:11:16;;;;;;;3.05;1.70;;;;;;;10.64;70.67;100212.99;1745749;81;21330;-73
2021/09/04 01:13:49;;;;;;;3.12;1.32;;;;;;;10.61;70.90;100208.86;1774818;81;21256;-73
2021/09/04 01:16:22;;;;;;;3.30;1.20;;;;;;;10.58;71.16;100204.39;1774518;81;21264;-71
2021/09/04 01:18:56;;;;;;;6.00;1.10;;;;;;;10.54;71.32;100201.21;1759687;81;21174;-72
2021/09/04 01:21:29;;;;;;;3.45;1.20;;;;;;;10.50;71.47;100205.08;1774430;81;21268;-72
2021/09/04 01:24:03;;;;;;;2.53;1.03;;;;;;;10.47;71.58;100200.58;1774989;81;21260;-72
2021/09/04 01:26:37;;;;;;;5.67;1.37;;;;;;;10.44;71.63;100202.16;1774120;81;21406;-72
2021/09/04 01:29:11;;;;;;;2.37;1.27;;;;;;;10.41;71.78;100201.94;1757941;81;21268;-72
2021/09/04 01:31:44;;;;;;;2.53;1.20;;;;;;;10.40;71.83;100203.40;1774898;81;21307;-73
2021/09/04 01:34:17;;;;;;;2.52;1.65;;;;;;;10.39;71.94;100198.64;1774815;81;21288;-73
2021/09/04 01:36:50;;;;;;;4.30;1.37;;;;;;;10.39;72.00;100197.33;1774370;81;21224;-72
2021/09/04 01:39:23;;;;;;;2.35;1.30;;;;;;;10.37;72.06;100189.27;1760065;81;21169;-72
2021/09/04 01:41:56;;;;;;;2.72;1.37;;;;;;;10.37;72.13;100190.58;1774791;81;21283;-73
2021/09/04 01:44:30;;;;;;;2.27;1.27;;;;;;;10.36;72.21;100188.47;1774919;81;21248;-73
2021/09/04 01:47:04;;;;;;;5.53;1.22;;;;;;;10.35;72.35;100186.80;1770905;79;21296;-73
2021/09/04 01:49:37;;;;;;;5.50;1.52;;;;;;;10.33;72.47;100187.90;1805044;79;21767;-73
2021/09/04 01:52:10;;;;;;;2.70;1.20;;;;;;;10.33;72.59;100188.73;1804388;79;21311;-73
2021/09/04 01:54:43;;;;;;;4.35;1.40;;;;;;;10.29;72.74;100179.51;1804801;79;21248;-73
2021/09/04 01:57:16;;;;;;;5.20;1.40;;;;;;;10.27;72.90;100171.45;1782182;79;21287;-73
2021/09/04 01:59:49;;;;;;;2.22;1.15;;;;;;;10.27;72.97;100174.06;1805156;79;21240;-73
2021/09/04 02:02:22;;;;;;;3.43;1.10;;;;;;;10.26;73.17;100179.77;1804865;79;21165;-72
2021/09/04 02:04:56;;;;;;;6.58;1.62;;;;;;;10.24;73.17;100171.71;1805097;79;21527;-73
2021/09/04 02:07:30;;;;;;;2.47;1.10;;;;;;;10.25;73.29;100172.04;1804265;79;21178;-74
2021/09/04 02:10:04;;;;;;;3.87;1.40;;;;;;;10.26;73.32;100164.55;1804598;79;21252;-74
2021/09/04 02:12:37;;;;;;;;;;;;;;;10.27;73.37;100170.94;1807125;79;21283;-74
2021/09/04 02:15:09;;;;;;;2.67;1.17;;;;;;;10.26;73.45;100166.69;1804724;79;20217;-73
2021/09/04 02:17:42;;;;;;;3.20;1.60;;;;;;;10.27;73.52;100171.45;1804183;79;21335;-72
2021/09/04 02:20:16;;;;;;;6.58;1.65;;;;;;;10.27;73.43;100169.63;1803074;79;21172;-72
2021/09/04 02:22:50;;;;;;;3.30;1.40;;;;;;;10.30;73.45;100171.16;1804468;79;21314;-73
2021/09/04 02:25:24;;;;;;;4.50;1.35;;;;;;;10.32;73.46;100177.10;1803445;79;21537;-72
2021/09/04 02:27:57;;;;;;;3.83;1.52;;;;;;;10.32;73.39;100174.48;1804192;79;21838;-72
2021/09/04 02:30:30;;;;;;;3.05;0.90;;;;;;;10.34;73.36;100164.70;1804840;79;21263;-73
2021/09/04 02:33:03;;;;;;;3.27;1.20;;;;;;;10.35;73.39;100166.34;1804706;79;21303;-72
2021/09/04 02:35:38;;;;;;;2.70;1.30;;;;;;;10.34;73.44;100161.58;1804701;79;21242;-72
2021/09/04 02:38:13;;;;;;;4.50;1.30;;;;;;;10.34;73.43;100172.55;1804023;79;21817;-72
2021/09/04 02:40:47;;;;;;;3.05;1.57;;;;;;;10.34;73.58;100169.94;1804701;79;21173;-72
2021/09/04 02:43:21;;;;;;;1.70;1.27;;;;;;;10.36;73.66;100180.62;1804325;79;21200;-73
2021/09/04 02:45:56;;;;;;;3.98;1.30;;;;;;;10.46;73.63;100174.08;1804165;79;21275;-73
2021/09/04 02:48:29;;;;;;;2.70;1.15;;;;;;;10.57;73.43;100166.91;1801124;79;21316;-73
2021/09/04 02:51:03;;;;;;;1.75;1.00;;;;;;;10.69;73.22;100164.98;1795739;80;21188;-73
2021/09/04 02:53:37;;;;;;;3.37;1.62;;;;;;;10.77;72.82;100163.30;1796918;80;21170;-73
2021/09/04 02:56:10;;;;;;;3.05;1.60;;;;;;;10.82;72.63;100161.57;1797390;80;21320;-74
2021/09/04 02:58:43;;;;;;;;;;;;;;;10.84;72.39;100154.42;1799072;80;21273;-73
2021/09/04 03:01:16;;;;;;;2.92;1.30;;;;;;;10.84;72.32;100151.30;1797717;80;20162;-73
2021/09/04 03:03:50;;;;;;;4.37;1.40;;;;;;;10.84;72.43;100153.12;1795701;80;21173;-74
2021/09/04 03:06:23;;;;;;;3.58;1.82;;;;;;;10.88;72.36;100153.65;1797286;80;21303;-73
2021/09/04 03:08:56;;;;;;;5.33;1.42;;;;;;;10.89;72.25;100158.73;1796713;80;21811;-73
2021/09/04 03:11:30;;;;;;;4.30;1.50;;;;;;;10.91;72.13;100153.38;1795806;79;21225;-74
2021/09/04 03:14:05;;;;;;;3.58;1.37;;;;;;;10.94;72.00;100166.20;1796652;80;21622;-73
2021/09/04 03:16:38;;;;;;;4.53;1.65;;;;;;;10.95;71.87;100167.36;1797437;80;21257;-74
2021/09/04 03:19:12;;;;;;;2.83;1.30;;;;;;;10.98;71.83;100162.32;1796450;80;21154;-72
2021/09/04 03:21:45;;;;;;;2.75;1.47;;;;;;;11.00;71.79;100163.84;1797824;80;21256;-73
2021/09/04 03:24:20;;;;;;;3.70;1.37;;;;;;;11.02;71.68;100156.66;1796673;80;21814;-73
2021/09/04 03:26:53;;;;;;;6.97;1.50;;;;;;;11.06;71.63;100163.26;1797756;80;21126;-73
2021/09/04 03:29:28;;;;;;;5.03;1.55;;;;;;;11.10;71.46;100155.95;1796567;80;21160;-73
2021/09/04 03:32:03;;;;;;;8.05;1.57;;;;;;;11.15;71.54;100162.91;1797387;80;21154;-73
2021/09/04 03:34:37;;;;;;;2.45;1.47;;;;;;;11.22;71.45;100157.44;1796691;80;21154;-73
2021/09/04 03:37:10;;;;;;;3.52;1.30;;;;;;;11.30;71.30;100161.47;1798086;80;21252;-72
2021/09/04 03:39:44;;;;;;;2.67;1.50;;;;;;;11.39;71.15;100169.81;1796403;80;21208;-73
2021/09/04 03:42:18;;;;;;;3.58;1.60;;;;;;;11.46;70.89;100159.89;1797625;80;21181;-72
2021/09/04 03:44:52;;;;;;;5.05;1.90;;;;;;;11.53;70.77;100167.52;1796684;80;21189;-73
2021/09/04 03:47:26;;;;;;;2.95;1.70;;;;;;;11.64;70.54;100159.97;1797532;80;21287;-73
2021/09/04 03:50:00;;;;;;;4.33;1.92;;;;;;;11.76;70.29;100169.81;1799399;79;21141;-72
2021/09/04 03:52:34;;;;;;;;;;;;;;;11.87;70.06;100177.50;1807599;79;21134;-73
2021/09/04 03:55:08;;;;;;;3.33;1.82;;;;;;;11.98;69.85;100174.67;1804137;79;20209;-73
2021/09/04 03:57:41;;;;;;;3.90;1.75;;;;;;;12.07;69.76;100171.16;1805151;79;21664;-72
2021/09/04 04:00:16;;;;;;;5.70;1.65;;;;;;;12.15;69.43;100173.40;1803725;79;21259;-73
2021/09/04 04:02:49;;;;;;;3.67;2.00;;;;;;;12.27;69.18;100185.82;1804780;79;21284;-72
2021/09/04 04:05:23;;;;;;;3.90;1.90;;;;;;;12.39;68.81;100183.32;1804146;79;21802;-71
2021/09/04 04:07:57;;;;;;;4.70;1.80;;;;;;;12.53;68.71;100179.34;1804980;79;21137;-71
2021/09/04 04:10:31;;;;;;;4.03;1.90;;;;;;;12.67;68.37;100185.38;1803467;79;21275;-72
2021/09/04 04:13:05;;;;;;;3.55;1.80;;;;;;;12.83;68.02;100186.33;1804968;79;21259;-73
2021/09/04 04:15:39;;;;;;;3.75;1.82;;;;;;;13.00;67.67;100194.33;1803767;79;21790;-73
2021/09/04 04:18:13;;;;;;;4.78;1.90;;;;;;;13.16;67.23;100186.63;1804914;79;21236;-72
2021/09/04 04:20:46;;;;;;;4.92;2.72;;;;;;;13.33;66.74;100189.66;1803684;79;21255;-72
2021/09/04 04:23:19;;;;;;;3.83;1.80;;;;;;;13.48;66.29;100192.06;1804949;79;21256;-72
2021/09/04 04:25:55;;;;;;;3.27;1.90;;;;;;;13.60;65.81;100182.92;1803950;79;21264;-72
2021/09/04 04:28:28;;;;;;;3.70;1.90;;;;;;;13.71;65.45;100196.31;1805223;79;21265;-71
2021/09/04 04:31:03;;;;;;;4.75;2.37;;;;;;;13.80;65.07;100189.61;1803706;79;21283;-71
2021/09/04 04:33:36;;;;;;;8.08;1.90;;;;;;;13.87;64.73;100189.31;1804745;79;21243;-72
2021/09/04 04:36:11;;;;;;;4.90;2.30;;;;;;;13.93;64.42;100191.29;1803613;79;21200;-73
2021/09/04 04:38:44;;;;;;;;;;;;;;;13.98;64.16;100186.86;1807439;79;21331;-73
2021/09/04 04:41:19;;;;;;;4.05;2.27;;;;;;;14.04;63.82;100201.52;1803481;79;20168;-73
2021/09/04 04:43:53;;;;;;;6.62;2.22;;;;;;;14.10;63.65;100198.75;1804796;79;21259;-71
2021/09/04 04:46:26;;;;;;;4.37;2.55;;;;;;;14.19;63.60;100205.20;1803634;79;21247;-72
2021/09/04 04:49:00;;;;;;;5.67;2.87;;;;;;;14.34;63.23;100204.61;1803167;79;21145;-72
2021/09/04 04:51:35;;;;;;;7.37;2.87;;;;;;;14.51;62.91;100201.02;1803203;79;21308;-72
2021/09/04 04:54:09;;;;;;;4.35;2.45;;;;;;;14.65;62.45;100200.38;1804767;79;21129;-72
2021/09/04 04:56:43;;;;;;;7.15;2.65;;;;;;;14.75;61.93;100206.32;1803661;79;21161;-72
2021/09/04 04:59:17;;;;;;;6.22;2.60;;;;;;;14.82;61.58;100206.83;1804904;79;21138;-72
2021/09/04 05:01:51;;;;;;;7.92;2.40;;;;;;;14.91;61.53;100213.39;1803223;79;21311;-72
2021/09/04 05:04:24;;;;;;;5.00;2.95;;;;;;;15.04;61.21;100211.10;1804928;79;21295;-68
2021/09/04 05:06:58;;;;;;;3.80;2.60;;;;;;;15.43;60.72;100202.80;1781192;79;21302;-69
2021/09/04 05:09:33;;;;;;;4.35;2.70;;;;;;;16.37;59.57;100212.85;1801973;79;21204;-70
2021/09/04 05:12:08;;;;;;;5.30;2.80;;;;;;;17.53;56.84;100206.32;1800430;79;21331;-72
2021/09/04 05:14:41;;;;;;;11.15;2.52;;;;;;;18.66;53.02;100212.84;1733797;83;21202;-73
2021/09/04 05:17:15;;;;;;;7.92;3.08;;;;;;;19.68;50.47;100210.13;1800366;79;21203;-73
2021/09/04 05:19:49;;;;;;;8.40;2.75;;;;;;;20.79;48.14;100215.86;1802309;79;21351;-73
2021/09/04 05:22:22;;;;;;;5.70;2.90;;;;;;;21.75;44.62;100206.39;1801169;79;21367;-75
2021/09/04 05:24:55;;;;;;;4.15;2.65;;;;;;;22.40;42.55;100224.02;1802889;79;21248;-74
2021/09/04 05:27:29;;;;;;;4.10;3.12;;;;;;;22.84;41.34;100213.29;1734135;82;21310;-75
2021/09/04 05:30:02;;;;;;;5.35;3.45;;;;;;;23.48;39.85;100217.53;1803164;79;21233;-76
2021/09/04 05:32:36;;;;;;;6.33;3.37;;;;;;;24.20;39.12;100220.73;1801693;79;21276;-76
2021/09/04 05:35:09;;;;;;;7.67;3.67;;;;;;;24.94;37.45;100223.83;1803131;79;21129;-73
2021/09/04 05:37:43;;;;;;;4.37;2.80;;;;;;;25.43;36.81;100220.72;1801763;79;21275;-72
2021/09/04 05:40:16;;;;;;;5.78;2.75;;;;;;;25.66;36.20;100234.68;1803259;79;21241;-72
2021/09/04 05:42:49;;;;;;;;;;;;;;;26.00;35.14;100220.92;1804521;79;21281;-72
2021/09/04 05:45:22;;;;;;;4.62;2.65;;;;;;;26.16;34.52;100229.59;1803010;79;20229;-72
2021/09/04 05:47:55;;;;;;;4.80;2.67;;;;;;;26.00;34.59;100228.98;1801829;79;21311;-72
2021/09/04 05:50:28;;;;;;;8.20;2.98;;;;;;;25.71;34.48;100238.81;1803087;79;21244;-72
2021/09/04 05:53:01;;;;;;;7.87;3.00;;;;;;;25.34;35.00;100242.22;1808207;79;21133;-72
2021/09/04 05:55:35;;;;;;;5.95;3.10;;;;;;;24.99;35.05;100243.22;1811725;79;21244;-72
2021/09/04 05:58:07;;;;;;;4.78;3.05;;;;;;;24.69;35.62;100248.05;1810270;79;21216;-73
2021/09/04 06:00:40;;;;;;;5.47;2.83;;;;;;;24.50;36.47;100247.83;1811913;79;21248;-73
2021/09/04 06:03:14;;;;;;;4.70;2.90;;;;;;;24.29;36.66;100246.95;1779521;79;21272;-71
2021/09/04 06:05:47;;;;;;;7.60;3.10;;;;;;;24.15;36.98;100251.34;1812072;79;21803;-72
2021/09/04 06:08:21;;;;;;;6.37;2.87;;;;;;;23.71;37.57;100257.78;1810286;79;21177;-72
2021/09/04 06:10:53;;;;;;;6.75;2.77;;;;;;;23.17;38.62;100266.44;1811592;79;21231;-72
2021/09/04 06:13:26;;;;;;;5.75;2.75;;;;;;;22.65;39.50;100261.77;1810193;79;21276;-71
2021/09/04 06:15:59;;;;;;;4.53;2.77;;;;;;;22.14;40.47;100259.59;1811562;79;21106;-70
2021/09/04 06:18:33;;;;;;;5.72;3.17;;;;;;;21.70;41.69;100261.65;1809763;79;21742;-69
2021/09/04 06:21:07;;;;;;;7.75;3.20;;;;;;;21.34;42.33;100259.94;1811556;79;21822;-70
2021/09/04 06:23:40;;;;;;;5.10;3.35;;;;;;;21.08;43.15;100266.59;1810221;79;21168;-70
2021/09/04 06:26:13;;;;;;;4.80;2.87;;;;;;;20.81;43.88;100273.17;1811621;79;21240;-72
2021/09/04 06:28:48;;;;;;;5.75;2.80;;;;;;;20.53;44.42;100274.31;1809945;79;21283;-72
2021/09/04 06:31:21;;;;;;;6.85;3.60;;;;;;;20.20;44.94;100271.51;1811560;79;21833;-72
2021/09/04 06:33:55;;;;;;;5.28;3.00;;;;;;;19.97;45.61;100269.12;1741320;82;21688;-74
2021/09/04 06:36:28;;;;;;;7.62;3.25;;;;;;;19.79;46.15;100262.69;1742685;82;21126;-73
2021/09/04 06:39:01;;;;;;;5.92;3.45;;;;;;;19.63;46.45;100265.13;1741136;82;21339;-74
2021/09/04 06:41:35;;;;;;;5.55;3.08;;;;;;;19.53;47.06;100264.67;1742463;82;21696;-74
2021/09/04 06:44:08;;;;;;;4.87;2.87;;;;;;;19.49;47.55;100273.52;1741279;82;21324;-74
2021/09/04 06:46:41;;;;;;;;;;;;;;;19.43;47.43;100272.97;1743454;82;21188;-73
2021/09/04 06:49:15;;;;;;;;;;;;;;;19.32;47.88;100283.27;1758730;81;20251;-74
2021/09/04 06:51:49;;;;;;;7.30;3.05;;;;;;;19.17;48.12;100285.99;1742436;82;20265;-73
2021/09/04 06:54:24;;;;;;;7.10;3.20;;;;;;;18.99;48.63;100285.59;1732885;82;21276;-72
2021/09/04 06:56:58;;;;;;;8.75;3.15;;;;;;;18.79;49.00;100288.58;1809737;79;21188;-73
2021/09/04 06:59:31;;;;;;;6.90;2.92;;;;;;;18.60;49.58;100290.50;1810055;79;21161;-74
2021/09/04 07:02:04;;;;;;;7.87;3.37;;;;;;;18.42;50.03;100294.01;1811445;79;21244;-73
2021/09/04 07:04:37;;;;;;;5.45;3.30;;;;;;;18.25;50.70;100303.99;1810049;79;21133;-73
2021/09/04 07:07:11;;;;;;;5.55;3.10;;;;;;;18.09;51.16;100303.70;1811777;79;21280;-73
2021/09/04 07:09:44;;;;;;;7.92;2.95;;;;;;;17.93;51.47;100308.35;1810156;79;21177;-72
2021/09/04 07:12:17;;;;;;;4.90;3.05;;;;;;;17.77;51.98;100301.91;1811669;79;21165;-73
2021/09/04 07:14:51;;;;;;;5.58;2.90;;;;;;;17.63;52.34;100310.12;1810153;79;21188;-73
2021/09/04 07:17:24;;;;;;;7.83;3.42;;;;;;;17.52;52.85;100310.58;1811765;79;21248;-73
2021/09/04 07:19:59;;;;;;;4.97;2.67;;;;;;;17.43;53.18;100312.95;1741006;82;21188;-74
2021/09/04 07:22:33;;;;;;;7.00;3.08;;;;;;;17.34;53.57;100316.14;1742430;82;21299;-74
2021/09/04 07:25:08;;;;;;;10.80;2.65;;;;;;;17.30;53.82;100316.67;1742736;82;21142;-74
2021/09/04 07:27:40;;;;;;;6.20;3.40;;;;;;;17.31;54.26;100315.69;1742791;82;21822;-74
2021/09/04 07:30:16;;;;;;;5.70;3.17;;;;;;;17.36;54.52;100323.39;1743040;82;21269;-73
2021/09/04 07:32:49;;;;;;;10.32;3.25;;;;;;;17.48;54.58;100329.91;1742306;82;21324;-74
2021/09/04 07:35:22;;;;;;;14.68;3.50;;;;;;;17.55;54.17;100327.43;1743028;82;21245;-75
2021/09/04 07:37:55;;;;;;;6.62;3.42;;;;;;;17.59;53.97;100332.68;1742660;82;21162;-73
2021/09/04 07:40:28;;;;;;;7.65;3.47;;;;;;;17.48;54.32;100339.70;1743122;82;21630;-73
2021/09/04 07:43:03;;;;;;;11.22;3.67;;;;;;;17.48;54.32;100339.70;1742731;82;21336;-73
2021/09/04 07:45:38;;;;;;;5.22;3.22;;;;;;;17.42;54.38;100344.37;1742286;82;21296;-72
2021/09/04 07:48:11;;;;;;;5.20;2.98;;;;;;;17.33;54.56;100348.91;1742874;82;21292;-75
2021/09/04 07:50:45;;;;;;;5.12;3.10;;;;;;;17.25;54.68;100355.58;1742727;82;21272;-73
2021/09/04 07:53:18;;;;;;;6.10;3.30;;;;;;;17.19;55.07;100358.94;1742564;82;21895;-74
2021/09/04 07:55:51;;;;;;;8.93;3.30;;;;;;;17.10;55.24;100357.84;1742821;82;21200;-74
2021/09/04 07:58:24;;;;;;;8.18;3.47;;;;;;;17.04;55.53;100362.01;1742865;82;21320;-74
2021/09/04 08:00:57;;;;;;;7.25;3.58;;;;;;;16.97;55.92;100356.27;1743000;82;21273;-74
2021/09/04 08:03:30;;;;;;;6.97;3.80;;;;;;;16.94;56.14;100356.60;1742532;82;21268;-73
2021/09/04 08:06:05;;;;;;;8.45;3.17;;;;;;;16.94;56.36;100357.92;1742910;82;21312;-75
2021/09/04 08:08:39;;;;;;;6.75;3.27;;;;;;;16.93;56.55;100361.59;1742721;82;21288;-75
2021/09/04 08:11:13;;;;;;;5.78;3.33;;;;;;;16.91;56.58;100356.97;1714337;82;21304;-73
2021/09/04 08:13:46;;;;;;;7.20;2.90;;;;;;;16.90;56.73;100360.11;1742121;82;21283;-75
2021/09/04 08:16:20;;;;;;;;;;;;;;;16.90;56.93;100348.70;1743610;82;21197;-73
2021/09/04 08:18:52;;;;;;;8.15;3.52;;;;;;;16.90;56.81;100358.78;1737184;82;20226;-73
2021/09/04 08:21:27;;;;;;;8.38;3.40;;;;;;;16.88;56.91;100359.47;1742610;82;21250;-72
2021/09/04 08:24:00;;;;;;;5.75;3.50;;;;;;;16.92;56.98;100366.05;1757655;81;21273;-75
2021/09/04 08:26:33;;;;;;;6.70;3.53;;;;;;;16.97;57.00;100358.41;1742566;82;21811;-75
2021/09/04 08:29:06;;;;;;;9.38;3.90;;;;;;;16.97;56.90;100354.45;1742666;82;21268;-73
2021/09/04 08:31:40;;;;;;;5.62;3.60;;;;;;;16.99;57.03;100356.91;1742919;82;21280;-74
2021/09/04 08:34:14;;;;;;;6.50;3.45;;;;;;;16.97;56.94;100354.45;1742258;82;21193;-74
2021/09/04 08:36:47;;;;;;;7.12;3.67;;;;;;;16.94;56.88;100352.63;1742696;82;21264;-74
2021/09/04 08:39:21;;;;;;;5.62;2.98;;;;;;;16.95;57.14;100364.38;1742671;82;21272;-75
2021/09/04 08:41:54;;;;;;;8.48;3.45;;;;;;;16.98;57.75;100361.89;1742680;82;21270;-74
2021/09/04 08:44:27;;;;;;;8.13;3.75;;;;;;;17.00;57.75;100358.56;1742175;82;21193;-74
2021/09/04 08:47:00;;;;;;;6.55;3.35;;;;;;;16.99;57.95;100362.20;1741534;82;21295;-75
2021/09/04 08:49:38;;;;;;;10.43;4.03;;;;;;;16.96;57.91;100366.02;1742640;82;21728;-73
2021/09/04 08:52:12;;;;;;;10.43;3.47;;;;;;;16.97;57.90;100372.13;1741691;82;21335;-74
2021/09/04 08:54:48;;;;;;;10.93;3.95;;;;;;;16.99;57.97;100370.96;1741212;82;21362;-73
2021/09/04 08:57:22;;;;;;;9.65;4.10;;;;;;;17.04;57.89;100371.27;1740576;82;21291;-73
2021/09/04 09:00:15;;;;;;;12.88;4.25;;;;;;;17.08;57.84;100367.75;1802674;79;21302;-73
2021/09/04 09:02:48;;;;;;;7.45;3.50;;;;;;;17.09;57.85;100370.25;1714340;83;21661;-73
2021/09/04 09:05:21;;;;;;;7.47;3.15;;;;;;;17.07;57.67;100384.64;1800339;79;21367;-74
2021/09/04 09:07:54;;;;;;;6.62;3.00;;;;;;;17.05;57.77;100374.73;1787200;79;21807;-74
2021/09/04 09:10:31;;;;;;;6.33;2.93;;;;;;;17.00;57.95;100385.02;1802524;79;21937;-74
2021/09/04 09:13:05;;;;;;;9.48;3.37;;;;;;;16.96;58.12;100386.34;1801809;79;21300;-74
2021/09/04 09:15:39;;;;;;;7.22;3.55;;;;;;;16.88;58.30;100387.23;1800589;79;21146;-74
2021/09/04 09:18:16;;;;;;;6.92;3.10;;;;;;;16.84;58.65;100387.23;1801567;79;21153;-74
2021/09/04 09:21:01;;;;;;;6.87;3.85;;;;;;;16.82;58.92;100390.06;1800872;79;21193;-74
2021/09/04 09:23:33;;;;;;;;;;;;;;;16.84;59.14;100387.23;1804969;79;21268;-74
2021/09/04 09:26:10;;;;;;;6.05;3.17;;;;;;;16.87;59.12;100379.45;1801595;79;20197;-75
2021/09/04 09:28:43;;;;;;;6.65;3.77;;;;;;;16.91;59.13;100383.42;1802263;79;21847;-74
2021/09/04 09:31:17;;;;;;;6.33;3.55;;;;;;;17.00;59.16;100387.66;1802494;79;21292;-75
2021/09/04 09:33:50;;;;;;;6.12;2.87;;;;;;;17.06;59.02;100392.23;1802441;79;21181;-74
2021/09/04 09:36:23;;;;;;;;;;;;;;;17.08;58.82;100396.84;1757858;79;21232;-73
2021/09/04 09:38:55;;;;;;;6.85;3.47;;;;;;;17.06;58.96;100403.65;1802312;79;20287;-74
2021/09/04 09:41:28;;;;;;;7.17;3.30;;;;;;;17.02;58.98;100405.00;1802390;79;21296;-74
2021/09/04 09:44:01;;;;;;;7.20;3.87;;;;;;;16.99;58.95;100409.31;1802222;79;21870;-74
2021/09/04 09:46:40;;;;;;;8.95;3.30;;;;;;;16.99;58.85;100411.95;1711679;83;21225;-74
2021/09/04 09:49:13;;;;;;;10.18;3.92;;;;;;;16.99;58.75;100414.59;1799439;79;21256;-74
2021/09/04 09:51:46;;;;;;;8.80;3.42;;;;;;;17.03;58.72;100417.73;1801546;79;21379;-74
2021/09/04 09:54:20;;;;;;;9.35;3.67;;;;;;;17.08;58.48;100414.05;1802495;79;21193;-74
2021/09/04 09:56:56;;;;;;;7.30;4.42;;;;;;;17.16;58.34;100410.04;1797644;79;21270;-74
2021/09/04 09:59:29;;;;;;;11.40;6.25;;;;;;;17.35;58.05;100417.03;1780897;80;21288;-74
2021/09/04 10:02:14;;;;;;;6.85;3.37;;;;;;;17.72;57.41;100415.48;1786175;80;21326;-74
2021/09/04 10:04:48;;;;;;;5.35;2.92;;;;;;;18.22;56.37;100407.73;1786776;80;21169;-74
2021/09/04 10:07:21;;;;;;;8.40;2.55;;;;;;;18.83;55.10;100406.05;1785787;80;21777;-73
2021/09/04 10:09:54;;;;;;;4.97;2.60;;;;;;;19.30;53.00;100407.37;1786814;80;21248;-73
2021/09/04 10:12:28;;;;;;;3.90;2.20;;;;;;;19.57;51.82;100411.14;1769239;79;21113;-73
2021/09/04 10:15:03;;;;;;;4.80;2.30;;;;;;;19.76;50.63;100405.19;1745618;82;21312;-72
2021/09/04 10:17:37;;;;;;;7.05;2.52;;;;;;;19.88;50.22;100408.47;1747492;80;21170;-72
2021/09/04 10:20:11;;;;;;;4.47;2.55;;;;;;;20.01;49.78;100412.54;1781860;80;21307;-72
2021/09/04 10:22:44;;;;;;;;;;;;;;;20.10;49.22;100411.41;1787822;80;21850;-72
2021/09/04 10:25:19;;;;;;;4.67;1.70;;;;;;;20.11;47.70;100406.89;1785642;80;20222;-72
2021/09/04 10:27:53;;;;;;;4.03;2.47;;;;;;;20.02;47.61;100407.55;1785538;80;21299;-69
2021/09/04 10:30:35;;;;;;;3.30;1.87;;;;;;;20.08;47.88;100407.30;1743886;80;21271;-68
2021/09/04 10:33:16;;;;;;;4.00;2.02;;;;;;;20.26;47.68;100404.98;1785456;80;21354;-68
2021/09/04 10:35:59;;;;;;;3.47;2.27;;;;;;;20.47;46.85;100401.42;1783727;80;21189;-69
2021/09/04 10:38:37;;;;;;;7.97;4.42;;;;;;;20.59;46.48;100404.66;1785451;80;21299;-69
2021/09/04 10:41:22;;;;;;;3.98;2.40;;;;;;;20.64;45.71;100406.23;1785537;80;21307;-70
2021/09/04 10:43:57;;;;;;;6.78;3.10;;;;;;;20.71;45.39;100403.09;1786811;80;21180;-69
2021/09/04 10:46:30;;;;;;;17.90;9.35;;;;;;;20.87;44.91;100401.95;1786177;79;21173;-68
2021/09/04 10:49:05;;;;;;;6.28;2.25;;;;;;;21.03;45.22;100408.24;1745464;80;21244;-69
2021/09/04 10:51:52;;;;;;;2.85;1.92;;;;;;;21.11;44.59;100416.06;1786506;80;21167;-69
2021/09/04 10:55:01;;;;;;;4.87;2.17;;;;;;;21.10;44.45;100412.28;1786746;80;21714;-70
2021/09/04 10:57:51;;;;;;;2.95;1.72;;;;;;;21.05;44.78;100416.05;1795276;80;21264;-70
2021/09/04 11:00:28;;;;;;;3.40;1.35;;;;;;;20.97;44.83;100409.55;1795679;78;21279;-70
2021/09/04 11:03:05;;;;;;;5.45;1.37;;;;;;;20.87;44.74;100413.92;1794798;79;21137;-70
2021/09/04 11:05:59;;;;;;;2.77;1.20;;;;;;;20.75;44.87;100409.65;1706141;82;21312;-71
2021/09/04 11:08:37;;;;;;;4.17;1.30;;;;;;;20.64;44.97;100420.03;1787918;79;21296;-72
2021/09/04 11:11:37;;;;;;;1.98;1.27;;;;;;;20.50;45.22;100431.12;1785647;79;21343;-72
2021/09/04 11:14:23;;;;;;;2.20;1.10;;;;;;;20.34;45.61;100426.12;1770242;81;21373;-71
2021/09/04 11:16:58;;;;;;;1.72;1.20;;;;;;;20.22;45.96;100429.47;1771428;81;21810;-71
2021/09/04 11:19:35;;;;;;;1.65;0.90;;;;;;;20.11;46.17;100427.65;1771782;81;21200;-71
2021/09/04 11:22:12;;;;;;;3.33;1.00;;;;;;;20.01;45.76;100415.73;1776554;79;21593;-71
2021/09/04 11:24:53;;;;;;;1.67;1.10;;;;;;;19.90;45.74;100418.39;1779566;79;21134;-71
2021/09/04 11:27:21;;;;;;;4.25;1.22;;;;;;;19.81;45.83;100420.88;1802030;79;21300;-71
2021/09/04 11:29:57;;;;;;;4.35;2.60;;;;;;;19.67;45.69;100419.13;1800454;79;21161;-71
2021/09/04 11:32:33;;;;;;;5.22;2.60;;;;;;;19.55;47.40;100423.30;1779783;79;21276;-71
2021/09/04 11:35:09;;;;;;;7.05;2.77;;;;;;;19.54;47.57;100425.62;1773044;81;21855;-72
2021/09/04 11:37:43;;;;;;;5.92;2.92;;;;;;;19.57;48.42;100428.41;1798179;79;21351;-71
2021/09/04 11:40:22;;;;;;;7.90;2.83;;;;;;;19.61;48.87;100428.36;1803119;79;21241;-72
2021/09/04 11:42:53;;;;;;;13.88;6.15;;;;;;;19.59;49.18;100427.70;1734418;83;21192;-71
2021/09/04 11:45:30;;;;;;;39.00;12.58;;;;;;;19.50;49.53;100433.66;1803122;79;21342;-70
2021/09/04 11:48:12;;;;;;;19.12;6.72;;;;;;;19.47;49.95;100428.72;1733870;83;21823;-71
2021/09/04 11:50:46;;;;;;;33.35;8.63;;;;;;;19.44;50.32;100430.41;1803362;79;21240;-71
2021/09/04 11:53:21;;;;;;;9.23;4.12;;;;;;;19.34;50.58;100432.05;1802825;79;21296;-71
2021/09/04 11:55:54;;;;;;;39.27;14.70;;;;;;;19.23;50.49;100427.22;1802946;79;21249;-70
2021/09/04 11:58:27;;;;;;;28.62;12.20;;;;;;;19.14;50.82;100423.53;1801600;79;21228;-72
2021/09/04 12:01:05;;;;;;;36.55;10.28;;;;;;;19.06;51.01;100422.34;1803254;79;21280;-71